createdAt,value
2023-01-20T00:01:47.949Z,32.05
2023-01-20T00:04:18.947Z,33.38
2023-01-20T00:06:46.673Z,32.00
2023-01-20T00:09:16.044Z,33.13
2023-01-20T00:11:44.663Z,32.22
2023-01-20T00:14:13.885Z,33.03
2023-01-20T00:16:41.648Z,33.63
2023-01-20T00:19:09.389Z,33.58
2023-01-20T00:21:37.131Z,32.85
2023-01-20T00:24:05.269Z,32.57
2023-01-20T00:26:33.017Z,33.45
2023-01-20T00:29:00.721Z,33.92
2023-01-20T00:31:31.207Z,35.22
2023-01-20T00:34:01.124Z,33.92
2023-01-20T00:36:31.163Z,34.07
2023-01-20T00:38:58.973Z,34.05
2023-01-20T00:41:26.694Z,33.70
2023-01-20T00:43:54.461Z,33.25
2023-01-20T00:46:22.985Z,33.47
2023-01-20T00:48:52.204Z,33.33
2023-01-20T00:51:19.968Z,33.63
2023-01-20T00:53:47.740Z,32.22
2023-01-20T00:56:15.446Z,33.13
2023-01-20T00:58:44.065Z,32.03
2023-01-20T01:01:12.364Z,31.80
2023-01-20T01:03:40.161Z,33.15
2023-01-20T01:06:12.272Z,31.50
2023-01-20T01:08:40.031Z,31.58
2023-01-20T01:11:08.089Z,31.10
2023-01-20T01:13:37.247Z,30.90
2023-01-20T01:16:05.652Z,31.20
2023-01-20T01:18:33.362Z,30.65
2023-01-20T01:21:01.322Z,29.48
2023-01-20T01:23:30.427Z,28.98
2023-01-20T01:25:58.548Z,27.33
2023-01-20T01:28:26.247Z,27.17
2023-01-20T01:30:53.936Z,26.45
2023-01-20T01:33:21.671Z,28.40
2023-01-20T01:35:56.251Z,27.45
2023-01-20T01:38:24.269Z,25.08
2023-01-20T01:40:54.823Z,22.60
2023-01-20T01:43:25.423Z,22.85
2023-01-20T01:45:53.260Z,22.90
2023-01-20T01:48:22.477Z,20.90
2023-01-20T01:50:53.966Z,20.95
2023-01-20T01:53:22.329Z,21.73
2023-01-20T01:55:54.695Z,20.90
2023-01-20T01:58:26.774Z,21.17
2023-01-20T02:00:54.540Z,19.83
2023-01-20T02:03:22.433Z,18.33
2023-01-20T02:05:50.746Z,18.75
2023-01-20T02:08:18.486Z,18.60
2023-01-20T02:10:46.160Z,18.13
2023-01-20T02:13:15.341Z,17.42
2023-01-20T02:15:49.021Z,14.25
2023-01-20T02:18:35.539Z,13.17
2023-01-20T02:21:49.015Z,14.00
2023-01-20T02:25:01.821Z,13.50
2023-01-20T02:27:44.256Z,13.43
2023-01-20T02:30:40.243Z,14.07
2023-01-20T02:33:11.481Z,13.30
2023-01-20T02:35:43.898Z,12.95
2023-01-20T02:38:15.462Z,12.75
2023-01-20T02:40:51.026Z,13.68
2023-01-20T02:43:21.694Z,12.97
2023-01-20T02:45:51.156Z,12.60
2023-01-20T02:48:25.979Z,13.17
2023-01-20T02:50:59.877Z,12.73
2023-01-20T02:53:31.869Z,13.55
2023-01-20T02:55:59.649Z,13.50
2023-01-20T02:58:31.174Z,13.20
2023-01-20T03:01:02.178Z,13.90
2023-01-20T03:03:35.095Z,13.80
2023-01-20T03:06:05.339Z,13.40
2023-01-20T03:08:33.649Z,14.40
2023-01-20T03:11:05.083Z,14.43
2023-01-20T03:13:35.473Z,14.80
2023-01-20T03:16:06.411Z,14.13
2023-01-20T03:18:36.235Z,15.20
2023-01-20T03:21:05.445Z,16.52
2023-01-20T03:23:35.021Z,15.68
2023-01-20T03:26:04.662Z,16.53
2023-01-20T03:28:32.348Z,15.93
2023-01-20T03:31:00.603Z,17.50
2023-01-20T03:33:28.543Z,18.45
2023-01-20T03:35:57.730Z,19.30
2023-01-20T03:38:25.469Z,18.88
2023-01-20T03:41:00.195Z,18.83
2023-01-20T03:43:30.926Z,19.38
2023-01-20T03:46:03.963Z,19.63
2023-01-20T03:48:38.658Z,20.53
2023-01-20T03:51:11.947Z,21.25
2023-01-20T03:53:45.495Z,20.80
2023-01-20T03:56:17.119Z,21.58
2023-01-20T03:58:47.265Z,22.13
2023-01-20T04:01:18.510Z,21.63
2023-01-20T04:03:48.038Z,23.27
2023-01-20T04:06:19.593Z,23.13
2023-01-20T04:08:49.921Z,23.00
2023-01-20T04:11:17.843Z,22.70
2023-01-20T04:13:45.564Z,23.63
2023-01-20T04:16:17.202Z,23.27
2023-01-20T04:18:47.321Z,24.02
2023-01-20T04:21:20.345Z,26.55
2023-01-20T04:23:52.885Z,25.95
2023-01-20T04:26:20.657Z,25.63
2023-01-20T04:28:48.368Z,24.50
2023-01-20T04:31:29.561Z,25.38
2023-01-20T04:33:58.543Z,25.27
2023-01-20T04:36:27.791Z,24.38
2023-01-20T04:38:55.456Z,25.60
2023-01-20T04:41:23.378Z,26.52
2023-01-20T04:43:51.173Z,25.77
2023-01-20T04:46:18.962Z,25.40
2023-01-20T04:48:47.079Z,26.10
2023-01-20T04:51:15.157Z,26.40
2023-01-20T04:53:44.250Z,24.88
2023-01-20T04:56:12.992Z,25.42
2023-01-20T04:58:40.834Z,25.47
2023-01-20T05:01:08.868Z,25.73
2023-01-20T05:03:36.743Z,26.15
2023-01-20T05:06:06.225Z,26.30
2023-01-20T05:08:34.106Z,26.10
2023-01-20T05:11:03.250Z,25.08
2023-01-20T05:13:31.156Z,24.17
2023-01-20T05:16:01.897Z,24.15
2023-01-20T05:18:30.560Z,25.10
2023-01-20T05:20:58.244Z,23.88
2023-01-20T05:23:25.918Z,23.88
2023-01-20T05:25:54.337Z,24.83
2023-01-20T05:28:23.596Z,25.02
2023-01-20T05:30:51.763Z,22.90
2023-01-20T05:33:19.888Z,23.40
2023-01-20T05:35:47.555Z,23.88
2023-01-20T05:38:15.325Z,23.35
2023-01-20T05:40:43.019Z,22.50
2023-01-20T05:43:12.872Z,22.97
2023-01-20T05:45:43.112Z,23.17
2023-01-20T05:48:10.827Z,22.25
2023-01-20T05:50:38.572Z,23.50
2023-01-20T05:53:06.336Z,22.67
2023-01-20T05:55:34.054Z,22.63
2023-01-20T05:58:02.501Z,22.60
2023-01-20T06:00:30.548Z,23.05
2023-01-20T06:02:59.690Z,23.30
2023-01-20T06:05:27.569Z,22.33
2023-01-20T06:07:56.088Z,21.05
2023-01-20T06:10:25.269Z,20.60
2023-01-20T06:12:53.826Z,21.92
2023-01-20T06:15:21.658Z,21.20
2023-01-20T06:17:49.355Z,21.42
2023-01-20T06:20:18.826Z,21.38
2023-01-20T06:22:46.609Z,24.35
2023-01-20T06:25:14.780Z,22.13
2023-01-20T06:27:42.553Z,22.35
2023-01-20T06:30:12.159Z,22.40
2023-01-20T06:32:39.854Z,24.25
2023-01-20T06:35:09.928Z,24.42
2023-01-20T06:37:40.390Z,24.75
2023-01-20T06:40:09.234Z,24.60
2023-01-20T06:42:36.906Z,25.27
2023-01-20T06:45:05.097Z,24.40
2023-01-20T06:47:32.717Z,25.13
2023-01-20T06:50:00.457Z,24.38
2023-01-20T06:52:28.281Z,24.95
2023-01-20T06:54:57.358Z,24.90
2023-01-20T06:57:25.052Z,24.90
2023-01-20T06:59:52.673Z,25.63
2023-01-20T07:02:20.423Z,25.77
2023-01-20T07:04:48.170Z,26.00
2023-01-20T07:07:15.905Z,25.00
2023-01-20T07:09:43.550Z,26.13
2023-01-20T07:12:12.674Z,25.52
2023-01-20T07:14:40.469Z,26.02
2023-01-20T07:17:13.504Z,26.30
2023-01-20T07:19:41.275Z,25.25
2023-01-20T07:22:08.956Z,26.52
2023-01-20T07:24:36.793Z,26.80
2023-01-20T07:27:04.595Z,26.42
2023-01-20T07:29:33.753Z,30.15
2023-01-20T07:32:01.553Z,33.42
2023-01-20T07:34:29.329Z,26.90
2023-01-20T07:36:57.039Z,25.45
2023-01-20T07:39:24.827Z,25.95
2023-01-20T07:41:52.590Z,39.37
2023-01-20T07:44:20.293Z,43.13
2023-01-20T07:46:51.617Z,32.00
2023-01-20T07:49:19.398Z,29.13
2023-01-20T07:51:47.096Z,27.98
2023-01-20T07:54:14.798Z,27.20
2023-01-20T07:56:42.509Z,25.03
2023-01-20T07:59:11.508Z,25.08
2023-01-20T08:01:39.253Z,25.70
2023-01-20T08:04:08.392Z,27.02
2023-01-20T08:06:36.084Z,24.60
2023-01-20T08:09:04.004Z,25.98
2023-01-20T08:13:38.063Z,29.23
2023-01-20T08:16:08.346Z,26.65
2023-01-20T08:18:36.769Z,31.50
2023-01-20T08:21:06.592Z,27.17
2023-01-20T08:23:34.458Z,26.48
2023-01-20T08:26:03.529Z,26.00
2023-01-20T08:28:31.509Z,26.58
2023-01-20T08:31:07.884Z,24.08
2023-01-20T08:33:36.107Z,24.50
2023-01-20T08:36:08.773Z,25.27
2023-01-20T08:38:36.838Z,24.03
2023-01-20T08:41:08.229Z,25.70
2023-01-20T08:43:35.977Z,25.35
2023-01-20T08:46:07.704Z,25.20
2023-01-20T08:48:35.660Z,25.87
2023-01-20T08:51:05.041Z,24.80
2023-01-20T08:53:32.893Z,24.42
2023-01-20T08:56:01.822Z,24.88
2023-01-20T08:58:30.252Z,24.58
2023-01-20T09:00:58.091Z,24.70
2023-01-20T09:03:27.225Z,25.58
2023-01-20T09:05:54.884Z,24.58
2023-01-20T09:08:23.384Z,24.27
2023-01-20T09:10:51.384Z,25.67
2023-01-20T09:13:19.084Z,23.85
2023-01-20T09:15:52.567Z,22.77
2023-01-20T09:18:20.328Z,23.90
2023-01-20T09:20:49.347Z,22.92
2023-01-20T09:23:17.023Z,25.83
2023-01-20T09:25:44.710Z,24.58
2023-01-20T09:28:14.206Z,24.33
2023-01-20T09:30:43.956Z,24.50
2023-01-20T09:33:12.120Z,24.20
2023-01-20T09:35:40.632Z,23.88
2023-01-20T09:38:28.340Z,25.47
2023-01-20T09:41:21.431Z,25.23
2023-01-20T09:43:55.424Z,23.60
2023-01-20T09:46:31.550Z,24.27
2023-01-20T09:49:23.427Z,23.55
2023-01-20T09:52:13.231Z,24.52
2023-01-20T09:54:46.102Z,24.42
2023-01-20T09:57:15.036Z,24.80
2023-01-20T09:59:47.188Z,24.65
2023-01-20T10:02:19.705Z,24.05
2023-01-20T10:04:49.403Z,24.05
2023-01-20T10:07:24.104Z,24.30
2023-01-20T10:09:56.476Z,23.70
2023-01-20T10:12:28.849Z,23.60
2023-01-20T10:15:01.290Z,22.90
2023-01-20T10:17:31.960Z,23.52
2023-01-20T10:20:04.009Z,22.92
2023-01-20T10:22:35.511Z,23.90
2023-01-20T10:25:08.274Z,23.58
2023-01-20T10:27:38.097Z,24.05
2023-01-20T10:30:09.121Z,24.33
2023-01-20T10:32:39.067Z,24.40
2023-01-20T10:35:15.570Z,25.73
2023-01-20T10:37:43.876Z,23.15
2023-01-20T10:40:20.997Z,23.70
2023-01-20T10:42:49.880Z,22.73
2023-01-20T10:45:22.730Z,23.40
2023-01-20T10:47:58.241Z,24.58
2023-01-20T10:50:52.281Z,24.10
2023-01-20T10:53:41.742Z,23.33
2023-01-20T10:56:36.153Z,24.25
2023-01-20T10:59:09.481Z,24.08
2023-01-20T11:01:37.744Z,24.50
2023-01-20T11:04:05.482Z,25.45
2023-01-20T11:06:33.858Z,25.15
2023-01-20T11:09:30.595Z,25.20
2023-01-20T11:12:00.927Z,25.20
2023-01-20T11:14:28.630Z,23.33
2023-01-20T11:17:01.156Z,24.00
2023-01-20T11:19:28.870Z,25.67
2023-01-20T11:21:56.593Z,24.23
2023-01-20T11:24:36.527Z,24.75
2023-01-20T11:27:07.045Z,24.40
2023-01-20T11:29:40.747Z,24.20
2023-01-20T11:32:25.431Z,24.15
2023-01-20T11:34:53.391Z,23.67
2023-01-20T11:37:22.563Z,23.95
2023-01-20T11:40:02.156Z,24.80
2023-01-20T11:42:32.277Z,24.87
2023-01-20T11:45:19.815Z,23.67
2023-01-20T11:48:01.446Z,25.75
2023-01-20T11:50:32.999Z,24.20
2023-01-20T11:53:19.364Z,26.00
2023-01-20T11:55:51.008Z,25.40
2023-01-20T11:58:21.778Z,28.48
2023-01-20T12:00:51.368Z,31.48
2023-01-20T12:03:46.835Z,24.95
2023-01-20T12:06:19.368Z,30.50
2023-01-20T12:08:50.701Z,35.28
2023-01-20T12:11:23.513Z,35.13
2023-01-20T12:14:23.634Z,32.72
2023-01-20T12:16:59.038Z,26.77
2023-01-20T12:19:31.982Z,28.20
2023-01-20T12:22:04.545Z,25.95
2023-01-20T12:24:54.797Z,28.38
2023-01-20T12:27:26.591Z,27.15
2023-01-20T12:29:57.355Z,22.20
2023-01-20T12:32:25.068Z,21.73
2023-01-20T12:34:52.822Z,21.30
2023-01-20T12:37:24.818Z,23.60
2023-01-20T12:40:07.359Z,22.15
2023-01-20T12:43:11.815Z,23.92
2023-01-20T12:45:51.132Z,26.27
2023-01-20T12:48:28.454Z,23.47
2023-01-20T12:51:10.635Z,24.27
2023-01-20T12:53:56.100Z,26.27
2023-01-20T12:56:31.403Z,22.20
2023-01-20T12:59:04.308Z,23.58
2023-01-20T13:01:47.215Z,23.20
2023-01-20T13:04:57.727Z,21.80
2023-01-20T13:07:49.547Z,21.20
2023-01-20T13:10:30.517Z,23.25
2023-01-20T13:13:03.229Z,22.25
2023-01-20T13:15:36.414Z,21.97
2023-01-20T13:18:19.064Z,22.48
2023-01-20T13:20:47.415Z,23.45
2023-01-20T13:23:17.163Z,22.77
2023-01-20T13:25:46.374Z,22.15
2023-01-20T13:28:17.567Z,22.73
2023-01-20T13:30:48.233Z,22.92
2023-01-20T13:33:32.719Z,21.60
2023-01-20T13:36:01.107Z,22.55
2023-01-20T13:38:31.032Z,23.65
2023-01-20T13:41:03.185Z,22.75
2023-01-20T13:43:48.212Z,22.65
2023-01-20T13:46:38.358Z,22.77
2023-01-20T13:49:15.745Z,23.30
2023-01-20T13:51:45.933Z,23.35
2023-01-20T13:54:47.250Z,22.40
2023-01-20T13:57:34.710Z,24.63
2023-01-20T14:00:02.505Z,24.30
2023-01-20T14:02:37.465Z,22.80
2023-01-20T14:05:20.775Z,22.52
2023-01-20T14:07:48.519Z,24.50
2023-01-20T14:10:16.351Z,23.90
2023-01-20T14:12:44.248Z,24.33
2023-01-20T14:15:34.200Z,23.15
2023-01-20T14:18:02.190Z,24.65
2023-01-20T14:20:31.509Z,24.73
2023-01-20T14:23:18.347Z,23.10
2023-01-20T14:25:57.945Z,24.33
2023-01-20T14:28:25.673Z,24.08
2023-01-20T14:31:21.301Z,25.67
2023-01-20T14:34:00.519Z,25.20
2023-01-20T14:36:31.836Z,24.55
2023-01-20T14:39:03.874Z,25.00
2023-01-20T14:41:34.630Z,24.02
2023-01-20T14:44:03.208Z,25.85
2023-01-20T14:46:40.693Z,25.42
2023-01-20T14:49:08.514Z,32.00
2023-01-20T14:51:37.663Z,26.33
2023-01-20T14:54:30.992Z,24.40
2023-01-20T14:56:59.940Z,24.67
2023-01-20T14:59:27.870Z,23.60
2023-01-20T15:02:06.804Z,22.42
2023-01-20T15:04:37.994Z,22.23
2023-01-20T15:07:07.511Z,22.77
2023-01-20T15:09:36.272Z,22.95
2023-01-20T15:12:42.580Z,23.90
2023-01-20T15:15:28.201Z,21.85
2023-01-20T15:18:18.911Z,21.98
2023-01-20T15:20:48.886Z,21.48
2023-01-20T15:23:35.505Z,21.58
2023-01-20T15:26:09.664Z,20.75
2023-01-20T15:28:42.311Z,21.13
2023-01-20T15:31:13.725Z,21.05
2023-01-20T15:33:41.839Z,22.38
2023-01-20T15:36:21.598Z,23.20
2023-01-20T15:38:51.369Z,22.33
2023-01-20T15:41:19.725Z,22.17
2023-01-20T15:43:49.151Z,23.08
2023-01-20T15:46:18.070Z,23.23
2023-01-20T15:48:46.702Z,23.50
2023-01-20T15:51:15.709Z,23.38
2023-01-20T15:53:43.497Z,24.35
2023-01-20T15:56:15.772Z,24.10
2023-01-20T15:58:43.507Z,25.42
2023-01-20T16:01:12.693Z,26.50
2023-01-20T16:03:40.444Z,26.35
2023-01-20T16:06:12.202Z,24.38
2023-01-20T16:08:40.164Z,24.63
2023-01-20T16:11:09.006Z,23.88
2023-01-20T16:13:38.153Z,26.45
2023-01-20T16:16:07.364Z,26.65
2023-01-20T16:18:35.078Z,27.05
2023-01-20T16:21:02.763Z,27.45
2023-01-20T16:23:30.594Z,27.65
2023-01-20T16:25:58.349Z,28.92
2023-01-20T16:28:26.039Z,28.02
2023-01-20T16:30:57.663Z,27.02
2023-01-20T16:33:26.660Z,26.40
2023-01-20T16:35:56.522Z,24.92
2023-01-20T16:38:26.873Z,25.63
2023-01-20T16:40:59.086Z,25.40
2023-01-20T16:43:26.832Z,25.40
2023-01-20T16:45:56.158Z,25.10
2023-01-20T16:48:25.586Z,24.17
2023-01-20T16:51:34.896Z,23.30
2023-01-20T16:54:02.602Z,24.48
2023-01-20T16:56:31.240Z,22.97
2023-01-20T16:59:00.626Z,22.35
2023-01-20T17:01:29.187Z,22.63
2023-01-20T17:03:58.582Z,22.70
2023-01-20T17:06:27.984Z,21.85
2023-01-20T17:08:58.585Z,21.30
2023-01-20T17:11:28.287Z,22.58
2023-01-20T17:13:56.634Z,22.90
2023-01-20T17:18:51.250Z,23.33
2023-01-20T17:21:20.674Z,23.90
2023-01-20T17:23:51.029Z,24.13
2023-01-20T17:26:19.044Z,24.42
2023-01-20T17:28:47.082Z,24.95
2023-01-20T17:31:14.970Z,25.27
2023-01-20T17:33:46.647Z,26.08
2023-01-20T17:36:16.670Z,26.35
2023-01-20T17:38:44.828Z,26.10
2023-01-20T17:41:16.021Z,26.30
2023-01-20T17:43:46.102Z,24.98
2023-01-20T17:46:16.057Z,25.63
2023-01-20T17:48:43.940Z,26.50
2023-01-20T17:51:12.577Z,24.13
2023-01-20T17:53:42.100Z,25.73
2023-01-20T17:56:12.695Z,24.83
2023-01-20T17:58:42.090Z,25.15
2023-01-20T18:01:11.552Z,24.25
2023-01-20T18:03:41.885Z,23.83
2023-01-20T18:06:19.029Z,23.52
2023-01-20T18:08:52.038Z,23.43
2023-01-20T18:11:21.713Z,23.97
2023-01-20T18:13:50.231Z,23.55
2023-01-20T18:16:20.291Z,22.90
2023-01-20T18:18:49.473Z,22.95
2023-01-20T18:21:19.175Z,23.13
2023-01-20T18:23:49.424Z,22.23
2023-01-20T18:26:18.828Z,22.20
2023-01-20T18:28:47.895Z,22.23
2023-01-20T18:31:17.589Z,21.73
2023-01-20T18:33:47.634Z,22.65
2023-01-20T18:36:17.785Z,22.65
2023-01-20T18:38:52.000Z,21.63
2023-01-20T18:41:20.006Z,21.33
2023-01-20T18:43:48.257Z,21.13
2023-01-20T18:46:16.198Z,20.77
2023-01-20T18:48:45.865Z,20.70
2023-01-20T18:51:15.756Z,21.05
2023-01-20T18:53:44.309Z,20.83
2023-01-20T18:56:15.303Z,21.07
2023-01-20T18:58:47.042Z,20.10
2023-01-20T19:01:18.236Z,19.88
2023-01-20T19:03:46.808Z,19.67
2023-01-20T19:06:16.627Z,19.45
2023-01-20T19:08:45.532Z,20.40
2023-01-20T19:11:15.917Z,19.33
2023-01-20T19:13:43.711Z,19.88
2023-01-20T19:16:13.315Z,19.85
2023-01-20T19:18:41.666Z,20.00
2023-01-20T19:21:11.453Z,19.55
2023-01-20T19:23:39.710Z,20.67
2023-01-20T19:26:09.089Z,20.35
2023-01-20T19:28:38.542Z,20.52
2023-01-20T19:31:07.606Z,21.23
2023-01-20T19:33:35.721Z,20.58
2023-01-20T19:36:04.883Z,21.65
2023-01-20T19:38:32.675Z,21.25
2023-01-20T19:41:05.589Z,21.95
2023-01-20T19:43:33.379Z,22.27
2023-01-20T19:46:03.774Z,21.15
2023-01-20T19:48:32.033Z,22.70
2023-01-20T19:51:03.718Z,22.10
2023-01-20T19:53:31.538Z,21.65
2023-01-20T19:56:02.835Z,20.95
2023-01-20T19:58:30.580Z,21.13
2023-01-20T20:01:07.885Z,21.50
2023-01-20T20:03:35.791Z,21.23
2023-01-20T20:06:05.019Z,21.95
2023-01-20T20:08:32.949Z,21.87
2023-01-20T20:11:00.651Z,21.48
2023-01-20T20:13:28.353Z,20.95
2023-01-20T20:16:01.827Z,22.30
2023-01-20T20:18:31.074Z,21.65
2023-01-20T20:20:59.017Z,21.20
2023-01-20T20:23:27.020Z,21.37
2023-01-20T20:25:56.573Z,23.10
2023-01-20T20:28:24.756Z,22.33
2023-01-20T20:30:55.389Z,21.77
2023-01-20T20:33:23.228Z,22.15
2023-01-20T20:35:52.601Z,22.83
2023-01-20T20:38:20.367Z,23.83
2023-01-20T20:40:48.113Z,23.88
2023-01-20T20:43:15.883Z,23.25
2023-01-20T20:45:43.684Z,22.80
2023-01-20T20:48:11.379Z,23.98
2023-01-20T20:50:39.102Z,24.30
2023-01-20T20:53:08.211Z,23.58
2023-01-20T20:55:40.243Z,25.27
2023-01-20T20:58:09.275Z,25.58
2023-01-20T21:00:37.006Z,25.05
2023-01-20T21:03:06.876Z,24.92
2023-01-20T21:05:34.847Z,25.45
2023-01-20T21:08:04.699Z,25.73
2023-01-20T21:10:34.036Z,25.65
2023-01-20T21:13:01.809Z,26.58
2023-01-20T21:15:30.461Z,26.60
2023-01-20T21:17:58.414Z,27.10
2023-01-20T21:20:26.229Z,26.70
2023-01-20T21:22:54.006Z,27.02
2023-01-20T21:25:24.041Z,27.10
2023-01-20T21:27:53.277Z,27.63
2023-01-20T21:30:23.196Z,29.05
2023-01-20T21:32:51.176Z,29.15
2023-01-20T21:35:18.933Z,29.45
2023-01-20T21:37:46.700Z,29.98
2023-01-20T21:40:14.907Z,29.55
2023-01-20T21:42:44.047Z,29.33
2023-01-20T21:45:12.530Z,31.13
2023-01-20T21:47:40.297Z,30.37
2023-01-20T21:50:26.884Z,30.23
2023-01-20T21:52:54.617Z,29.75
2023-01-20T21:55:24.163Z,29.75
2023-01-20T21:57:51.916Z,29.88
2023-01-20T22:00:22.097Z,31.45
2023-01-20T22:02:49.828Z,32.20
2023-01-20T22:05:18.278Z,30.65
2023-01-20T22:07:47.917Z,29.73
2023-01-20T22:10:16.141Z,29.95
2023-01-20T22:12:44.016Z,30.10
2023-01-20T22:15:12.624Z,30.25
2023-01-20T22:17:41.870Z,29.65
2023-01-20T22:20:11.228Z,30.23
2023-01-20T22:22:38.927Z,30.23
2023-01-20T22:25:07.534Z,30.08
2023-01-20T22:27:35.363Z,30.65
2023-01-20T22:30:03.070Z,31.45
2023-01-20T22:32:30.792Z,32.00
2023-01-20T22:35:00.024Z,30.58
2023-01-20T22:37:27.867Z,29.20
2023-01-20T22:39:55.723Z,29.45
2023-01-20T22:42:23.497Z,32.75
2023-01-20T22:44:51.291Z,32.40
2023-01-20T22:47:19.035Z,30.52
2023-01-20T22:49:46.795Z,29.60
2023-01-20T22:52:15.869Z,29.40
2023-01-20T22:54:43.556Z,28.67
2023-01-20T22:57:11.791Z,28.67
2023-01-20T22:59:39.508Z,28.83
2023-01-20T23:02:07.398Z,29.30
2023-01-20T23:04:35.201Z,29.77
2023-01-20T23:07:02.907Z,28.58
2023-01-20T23:09:32.082Z,28.63
2023-01-20T23:11:59.807Z,29.60
2023-01-20T23:14:58.521Z,28.95
2023-01-20T23:17:26.267Z,29.98
2023-01-20T23:19:54.297Z,29.27
2023-01-20T23:22:22.293Z,30.48
2023-01-20T23:24:51.693Z,30.52
2023-01-20T23:27:19.432Z,31.00
2023-01-20T23:29:49.105Z,31.50
2023-01-20T23:32:16.852Z,31.60
2023-01-20T23:34:44.578Z,29.20
2023-01-20T23:37:12.314Z,30.48
2023-01-20T23:39:40.085Z,28.45
2023-01-20T23:42:09.150Z,27.90
2023-01-20T23:44:36.805Z,29.50
2023-01-20T23:47:07.520Z,30.25
2023-01-20T23:49:35.175Z,30.77
2023-01-20T23:52:02.860Z,30.45
2023-01-20T23:54:30.619Z,30.38
2023-01-20T23:56:58.399Z,30.48
2023-01-20T23:59:27.559Z,29.73
